Time;durP1;ratioP1;P1;durP2;ratioP2;P2;SDS_P1;SDS_P2;PMS_P1;PMS_P2;Temp;Humidity;BMP_temperature;BMP_pressure;BME280_temperature;BME280_humidity;BME280_pressure;Samples;Min_cycle;Max_cycle;Signal;HPM_P1;HPM_P2
2023/10/03 00:02:00;;;;;;;27.90;13.30;;;17.10;99.90;;;;;;4991593;28;20231;-56
2023/10/03 00:04:27;;;;;;;26.93;12.73;;;17.20;99.90;;;;;;4992009;28;20247;-56
2023/10/03 00:06:54;;;;;;;27.67;12.80;;;17.10;99.90;;;;;;4991845;28;20231;-56
2023/10/03 00:09:22;;;;;;;30.67;13.77;;;17.20;99.90;;;;;;4991792;28;20224;-56
2023/10/03 00:11:50;;;;;;;28.87;13.97;;;17.20;99.90;;;;;;4996049;28;20202;-57
2023/10/03 00:14:18;;;;;;;27.00;12.63;;;17.20;99.90;;;;;;4992432;28;20200;-57
2023/10/03 00:16:46;;;;;;;23.23;11.90;;;17.10;99.90;;;;;;4999417;28;20204;-57
2023/10/03 00:19:12;;;;;;;24.70;12.00;;;17.00;99.90;;;;;;4990801;28;20258;-57
2023/10/03 00:21:39;;;;;;;30.43;13.30;;;16.90;99.90;;;;;;4991777;28;20655;-57
2023/10/03 00:24:07;;;;;;;26.10;12.33;;;16.80;99.90;;;;;;4992031;28;20207;-57
2023/10/03 00:26:35;;;;;;;27.63;12.20;;;16.80;99.90;;;;;;4997287;28;20294;-57
2023/10/03 00:29:03;;;;;;;26.30;12.30;;;16.70;99.90;;;;;;4991244;28;20646;-58
2023/10/03 00:31:30;;;;;;;22.67;10.77;;;16.70;99.90;;;;;;4992114;28;20217;-57
2023/10/03 00:33:57;;;;;;;29.53;13.80;;;16.60;99.90;;;;;;4994213;28;20203;-57
2023/10/03 00:36:25;;;;;;;24.83;10.87;;;16.40;99.90;;;;;;4994218;28;20632;-57
2023/10/03 00:38:53;;;;;;;24.27;12.40;;;16.30;99.90;;;;;;4991293;28;20247;-57
2023/10/03 00:41:20;;;;;;;28.53;12.90;;;16.20;99.90;;;;;;4991953;28;20614;-57
2023/10/03 00:44:00;;;;;;;27.07;11.90;;;16.10;99.90;;;;;;4995210;28;20553;-57
2023/10/03 00:46:29;;;;;;;25.67;12.43;;;16.00;99.90;;;;;;4996483;28;20739;-57
2023/10/03 00:48:57;;;;;;;24.10;11.63;;;16.00;99.90;;;;;;4992115;28;20580;-57
2023/10/03 00:51:25;;;;;;;23.87;12.17;;;15.90;99.90;;;;;;4991868;28;20263;-57
2023/10/03 00:53:56;;;;;;;21.77;10.60;;;15.70;99.90;;;;;;4993861;28;20203;-56
2023/10/03 00:56:23;;;;;;;26.00;12.00;;;15.70;99.90;;;;;;4982754;28;20207;-56
2023/10/03 00:58:51;;;;;;;21.80;9.67;;;15.70;99.90;;;;;;4990511;28;20276;-57
2023/10/03 01:01:20;;;;;;;25.73;12.00;;;15.60;99.90;;;;;;4990944;28;20219;-57
2023/10/03 01:03:47;;;;;;;24.13;10.87;;;15.60;99.90;;;;;;4990457;28;20208;-57
2023/10/03 01:06:15;;;;;;;26.80;12.60;;;15.60;99.90;;;;;;4995627;28;20211;-57
2023/10/03 01:08:44;;;;;;;23.70;11.37;;;15.50;99.90;;;;;;4991791;28;20220;-57
2023/10/03 01:11:15;;;;;;;29.90;12.30;;;15.50;99.90;;;;;;4990957;28;20207;-57
2023/10/03 01:13:44;;;;;;;20.67;10.80;;;15.40;99.90;;;;;;4990720;28;20238;-57
2023/10/03 01:16:12;;;;;;;20.07;10.93;;;15.40;99.90;;;;;;4997222;28;20585;-57
2023/10/03 01:18:42;;;;;;;24.03;11.77;;;15.40;99.90;;;;;;4994134;28;20257;-56
2023/10/03 01:21:11;;;;;;;20.27;10.03;;;15.40;99.90;;;;;;4993619;28;20736;-57
2023/10/03 01:23:41;;;;;;;22.10;10.43;;;15.30;99.90;;;;;;4996439;28;20697;-57
2023/10/03 01:26:09;;;;;;;24.10;10.87;;;15.20;99.90;;;;;;4994120;28;20585;-57
2023/10/03 01:28:38;;;;;;;25.83;11.70;;;15.10;99.90;;;;;;4990763;28;20724;-57
2023/10/03 01:31:05;;;;;;;18.10;9.80;;;15.00;99.90;;;;;;4990147;28;20211;-56
2023/10/03 01:33:34;;;;;;;25.67;11.23;;;14.90;99.90;;;;;;4991032;28;20204;-57
2023/10/03 01:36:01;;;;;;;21.73;9.93;;;14.90;99.90;;;;;;4990701;28;20522;-56
2023/10/03 01:38:28;;;;;;;19.67;9.27;;;14.80;99.90;;;;;;4991267;28;20196;-57
2023/10/03 01:40:58;;;;;;;18.30;9.53;;;14.70;99.90;;;;;;4994171;28;20199;-57
2023/10/03 01:43:25;;;;;;;18.70;9.23;;;14.70;99.90;;;;;;4997373;28;20558;-57
2023/10/03 01:45:52;;;;;;;19.40;9.57;;;14.70;99.90;;;;;;4990339;28;20212;-56
2023/10/03 01:48:20;;;;;;;19.87;8.70;;;14.70;99.90;;;;;;4982872;28;20203;-57
2023/10/03 01:50:50;;;;;;;20.20;9.27;;;14.80;99.90;;;;;;4994795;28;20206;-57
2023/10/03 01:53:17;;;;;;;18.37;8.83;;;14.80;99.90;;;;;;4989279;28;20274;-56
2023/10/03 01:55:48;;;;;;;19.17;9.47;;;14.80;99.90;;;;;;4990679;28;20668;-56
2023/10/03 01:58:17;;;;;;;21.53;8.60;;;14.80;99.90;;;;;;4985336;28;20254;-56
2023/10/03 02:00:45;;;;;;;20.20;8.70;;;14.80;99.90;;;;;;4991671;28;20218;-57
2023/10/03 02:03:13;;;;;;;15.73;8.00;;;14.70;99.90;;;;;;4990000;28;20219;-57
2023/10/03 02:05:41;;;;;;;15.47;7.97;;;14.70;99.90;;;;;;4993363;28;20207;-57
2023/10/03 02:08:14;;;;;;;17.90;8.67;;;14.60;99.90;;;;;;4994602;28;20203;-57
2023/10/03 02:10:41;;;;;;;15.53;8.93;;;14.60;99.90;;;;;;4994108;28;20669;-57
2023/10/03 02:13:11;;;;;;;18.27;9.40;;;14.60;99.90;;;;;;4994028;28;20299;-57
2023/10/03 02:15:44;;;;;;;18.57;9.07;;;14.60;99.90;;;;;;4993099;28;20203;-56
2023/10/03 02:18:12;;;;;;;17.70;8.10;;;14.60;99.90;;;;;;4993654;28;20236;-57
2023/10/03 02:20:50;;;;;;;18.63;9.03;;;14.50;99.90;;;;;;4994177;28;20231;-56
2023/10/03 02:23:19;;;;;;;18.47;7.63;;;14.50;99.90;;;;;;4993517;28;20274;-56
2023/10/03 02:25:47;;;;;;;18.30;8.80;;;14.40;99.90;;;;;;4993811;28;20235;-57
2023/10/03 02:28:16;;;;;;;16.70;8.23;;;14.50;99.90;;;;;;4992754;28;20208;-56
2023/10/03 02:30:47;;;;;;;18.50;8.67;;;14.50;99.90;;;;;;5010248;28;20206;-56
2023/10/03 02:33:15;;;;;;;17.33;7.93;;;14.50;99.90;;;;;;5000173;28;20207;-56
2023/10/03 02:35:43;;;;;;;18.53;8.73;;;14.60;99.90;;;;;;4993455;28;20204;-56
2023/10/03 02:38:14;;;;;;;17.63;8.47;;;14.60;99.90;;;;;;4993767;28;20295;-57
2023/10/03 02:40:42;;;;;;;19.70;9.13;;;14.60;99.90;;;;;;4992606;28;20204;-56
2023/10/03 02:43:11;;;;;;;18.97;8.10;;;14.60;99.90;;;;;;4993281;28;20231;-56
2023/10/03 02:45:42;;;;;;;15.30;7.40;;;14.60;99.90;;;;;;4993921;28;20228;-56
2023/10/03 02:48:15;;;;;;;16.23;8.73;;;14.50;99.90;;;;;;4992600;28;20258;-57
2023/10/03 02:50:44;;;;;;;16.07;7.27;;;14.40;99.90;;;;;;4994899;28;20200;-57
2023/10/03 02:53:14;;;;;;;19.27;9.23;;;14.30;99.90;;;;;;4993399;28;20208;-57
2023/10/03 02:55:42;;;;;;;17.83;7.73;;;14.10;99.90;;;;;;4993796;28;20287;-57
2023/10/03 02:58:09;;;;;;;15.47;7.97;;;14.00;99.90;;;;;;4993185;28;20235;-56
2023/10/03 03:00:40;;;;;;;14.97;7.87;;;14.00;99.90;;;;;;4993178;28;20204;-56
2023/10/03 03:03:09;;;;;;;21.63;9.00;;;13.90;99.90;;;;;;4992305;28;20223;-56
2023/10/03 03:05:43;;;;;;;19.77;8.53;;;13.90;99.90;;;;;;4993510;28;20704;-56
2023/10/03 03:10:55;;;;;;;17.17;8.50;;;13.80;99.90;;;;;;4988999;28;20200;-56
2023/10/03 03:13:23;;;;;;;17.07;7.83;;;13.70;99.90;;;;;;4998887;28;20692;-57
2023/10/03 03:15:56;;;;;;;14.97;8.00;;;13.70;99.90;;;;;;4993377;28;20225;-56
2023/10/03 03:18:24;;;;;;;22.83;9.03;;;13.70;99.90;;;;;;4993153;28;20308;-57
2023/10/03 03:20:57;;;;;;;17.90;8.60;;;13.70;99.90;;;;;;5014405;23;20799;-52
2023/10/03 03:23:30;;;;;;;14.13;8.07;;;13.70;99.90;;;;;;4978082;28;20593;-52
2023/10/03 03:26:09;;;;;;;21.07;10.30;;;13.70;99.90;;;;;;4992573;28;20211;-52
2023/10/03 03:28:38;;;;;;;18.37;9.53;;;13.80;99.90;;;;;;4993933;28;20203;-52
2023/10/03 03:31:16;;;;;;;16.43;8.70;;;13.80;99.90;;;;;;4991393;28;20234;-52
2023/10/03 03:33:45;;;;;;;18.63;9.13;;;13.80;99.90;;;;;;4990963;28;20493;-52
2023/10/03 03:36:18;;;;;;;20.80;8.93;;;13.80;99.90;;;;;;4995391;28;20207;-52
2023/10/03 03:38:47;;;;;;;22.73;9.10;;;13.80;99.90;;;;;;5002887;28;20238;-52
2023/10/03 03:41:14;;;;;;;17.33;9.67;;;13.80;99.90;;;;;;4993848;28;20200;-52
2023/10/03 03:43:42;;;;;;;14.80;8.27;;;13.80;99.90;;;;;;4992931;28;20314;-52
2023/10/03 03:46:09;;;;;;;15.93;7.37;;;13.80;99.90;;;;;;4990587;28;20208;-52
2023/10/03 03:48:36;;;;;;;17.83;8.67;;;13.70;99.90;;;;;;4993373;28;20207;-52
2023/10/03 03:51:06;;;;;;;19.87;10.07;;;13.70;99.90;;;;;;4991745;28;20273;-52
2023/10/03 03:53:34;;;;;;;19.20;9.23;;;13.70;99.90;;;;;;4993458;28;20192;-52
2023/10/03 03:56:04;;;;;;;18.43;9.43;;;13.60;99.90;;;;;;4992339;28;20208;-52
2023/10/03 03:58:31;;;;;;;19.03;9.13;;;13.60;99.90;;;;;;4993298;28;20206;-52
2023/10/03 04:01:00;;;;;;;21.17;9.73;;;13.60;99.90;;;;;;4992723;28;20279;-52
2023/10/03 04:03:29;;;;;;;17.93;9.20;;;13.60;99.90;;;;;;4992868;28;20219;-52
2023/10/03 04:05:57;;;;;;;17.57;8.07;;;13.60;99.90;;;;;;4993585;28;20700;-52
2023/10/03 04:08:24;;;;;;;14.60;7.53;;;13.50;99.90;;;;;;4993475;28;20207;-52
2023/10/03 04:10:53;;;;;;;14.37;8.23;;;13.50;99.90;;;;;;4992993;28;20657;-52
2023/10/03 04:13:21;;;;;;;17.37;8.83;;;13.40;99.90;;;;;;4991285;28;20204;-52
2023/10/03 04:15:50;;;;;;;14.77;8.30;;;13.40;99.90;;;;;;4990452;28;20286;-52
2023/10/03 04:18:17;;;;;;;15.73;7.17;;;13.40;99.90;;;;;;4995661;28;20282;-52
2023/10/03 04:20:46;;;;;;;17.87;8.50;;;13.40;99.90;;;;;;4991920;28;20259;-52
2023/10/03 04:23:14;;;;;;;14.73;7.77;;;13.40;99.90;;;;;;4990203;28;20286;-52
2023/10/03 04:25:42;;;;;;;14.33;7.53;;;13.40;99.90;;;;;;4991580;28;20222;-52
2023/10/03 04:28:11;;;;;;;14.93;7.93;;;13.40;99.90;;;;;;4991916;28;20209;-52
2023/10/03 04:30:42;;;;;;;19.37;9.23;;;13.30;99.90;;;;;;4992230;28;20224;-52
2023/10/03 04:33:09;;;;;;;19.40;9.37;;;13.30;99.90;;;;;;4992299;28;20204;-52
2023/10/03 04:35:40;;;;;;;20.83;8.93;;;13.30;99.90;;;;;;4991236;28;20250;-52
2023/10/03 04:38:08;;;;;;;18.97;8.17;;;13.30;99.90;;;;;;4992573;28;20596;-52
2023/10/03 04:40:38;;;;;;;18.53;8.77;;;13.20;99.90;;;;;;4991668;28;20836;-52
2023/10/03 04:43:10;;;;;;;17.60;8.83;;;13.20;99.90;;;;;;4992611;28;20307;-52
2023/10/03 04:45:40;;;;;;;14.90;6.73;;;13.20;99.90;;;;;;4991645;28;20209;-52
2023/10/03 04:48:08;;;;;;;18.73;8.07;;;13.00;99.90;;;;;;4991331;28;20199;-52
2023/10/03 04:50:39;;;;;;;16.67;8.33;;;13.00;99.90;;;;;;4991294;28;20278;-52
2023/10/03 04:53:09;;;;;;;21.43;9.27;;;13.00;99.90;;;;;;4986909;28;20740;-52
2023/10/03 04:55:39;;;;;;;13.00;7.50;;;12.90;99.90;;;;;;4992216;28;20616;-52
2023/10/03 04:58:06;;;;;;;15.97;8.40;;;12.80;99.90;;;;;;4993748;28;20207;-52
2023/10/03 05:00:33;;;;;;;18.07;9.10;;;12.80;99.90;;;;;;4986531;28;20223;-51
2023/10/03 05:03:04;;;;;;;18.57;9.43;;;12.80;99.90;;;;;;4988223;28;20215;-52
2023/10/03 05:05:32;;;;;;;19.53;9.07;;;12.80;99.90;;;;;;4984661;28;20203;-52
2023/10/03 05:07:59;;;;;;;14.40;8.07;;;12.80;99.90;;;;;;4984918;28;20580;-52
2023/10/03 05:10:30;;;;;;;20.83;9.30;;;12.80;99.90;;;;;;4984582;28;20744;-52
2023/10/03 05:12:58;;;;;;;20.20;9.07;;;12.80;99.90;;;;;;4985608;28;20199;-52
2023/10/03 05:15:26;;;;;;;17.90;8.93;;;12.80;99.90;;;;;;4990848;28;20203;-52
2023/10/03 05:17:54;;;;;;;20.77;9.80;;;12.80;99.90;;;;;;4992215;28;20655;-51
2023/10/03 05:20:34;;;;;;;21.23;9.80;;;12.80;99.90;;;;;;4986498;28;20239;-52
2023/10/03 05:23:03;;;;;;;16.07;8.10;;;12.80;99.90;;;;;;4988733;28;20234;-52
2023/10/03 05:25:30;;;;;;;25.10;9.63;;;12.80;99.90;;;;;;4984628;28;20213;-52
2023/10/03 05:27:57;;;;;;;23.13;9.53;;;12.80;99.90;;;;;;4983396;28;20199;-52
2023/10/03 05:30:25;;;;;;;16.93;9.43;;;12.80;99.90;;;;;;4983783;28;20247;-52
2023/10/03 05:32:52;;;;;;;18.53;8.17;;;12.80;99.90;;;;;;4983036;28;20677;-54
2023/10/03 05:35:21;;;;;;;16.00;7.47;;;12.90;99.90;;;;;;4983798;28;20261;-52
2023/10/03 05:37:51;;;;;;;16.37;8.73;;;12.90;99.90;;;;;;4983674;28;20206;-52
2023/10/03 05:40:20;;;;;;;21.60;8.03;;;12.80;99.90;;;;;;4984695;28;20215;-52
2023/10/03 05:42:48;;;;;;;21.43;9.73;;;12.90;99.90;;;;;;4982285;28;20234;-52
2023/10/03 05:45:17;;;;;;;17.77;8.47;;;12.80;99.90;;;;;;4985201;28;20204;-52
2023/10/03 05:47:45;;;;;;;13.77;7.47;;;12.80;99.90;;;;;;4984822;28;20204;-52
2023/10/03 05:50:14;;;;;;;13.80;6.70;;;12.80;99.90;;;;;;4984224;28;20703;-51
2023/10/03 05:52:43;;;;;;;14.90;7.53;;;12.80;99.90;;;;;;4993144;28;20204;-52
2023/10/03 05:55:12;;;;;;;22.70;9.50;;;12.80;99.90;;;;;;4991329;28;20203;-52
2023/10/03 05:57:41;;;;;;;13.67;7.13;;;12.80;99.90;;;;;;4983213;28;20269;-52
2023/10/03 06:00:09;;;;;;;21.17;8.90;;;12.90;99.90;;;;;;4991418;28;20298;-52
2023/10/03 06:02:38;;;;;;;17.93;7.63;;;12.90;99.90;;;;;;4991332;28;20215;-51
2023/10/03 06:05:06;;;;;;;17.90;8.83;;;13.00;99.90;;;;;;4986801;28;20210;-51
2023/10/03 06:07:33;;;;;;;18.50;8.47;;;13.10;99.90;;;;;;4991736;28;20204;-52
2023/10/03 06:10:04;;;;;;;20.37;8.40;;;13.20;99.90;;;;;;4989452;28;20232;-51
2023/10/03 06:12:33;;;;;;;17.03;8.37;;;13.30;99.90;;;;;;4991668;28;20207;-52
2023/10/03 06:15:01;;;;;;;21.47;9.10;;;13.40;99.90;;;;;;4991716;28;20270;-52
2023/10/03 06:17:28;;;;;;;13.43;7.77;;;13.60;99.90;;;;;;4985798;28;20196;-52
2023/10/03 06:19:55;;;;;;;19.90;9.90;;;13.70;99.90;;;;;;4991098;28;20286;-52
2023/10/03 06:22:22;;;;;;;21.93;10.33;;;13.80;99.90;;;;;;4991047;28;20207;-52
2023/10/03 06:24:50;;;;;;;18.93;9.97;;;13.90;99.90;;;;;;4991690;28;20246;-52
2023/10/03 06:27:18;;;;;;;16.90;8.27;;;14.00;99.90;;;;;;4990967;28;20207;-52
2023/10/03 06:29:47;;;;;;;19.67;8.93;;;14.10;99.90;;;;;;4991671;28;20219;-52
2023/10/03 06:32:14;;;;;;;23.87;9.20;;;14.20;99.90;;;;;;4990929;28;20200;-53
2023/10/03 06:34:41;;;;;;;20.77;9.77;;;14.30;99.90;;;;;;4991521;28;20251;-53
2023/10/03 06:37:08;;;;;;;17.93;9.27;;;14.50;99.90;;;;;;4995343;28;20727;-53
2023/10/03 06:39:35;;;;;;;19.27;8.90;;;14.60;99.90;;;;;;4992107;28;20241;-52
2023/10/03 06:42:02;;;;;;;23.53;9.47;;;14.70;99.90;;;;;;4990941;28;20235;-52
2023/10/03 06:44:29;;;;;;;20.20;8.67;;;14.90;99.90;;;;;;4987380;28;20223;-52
2023/10/03 06:46:57;;;;;;;24.37;10.17;;;15.00;99.90;;;;;;4991401;28;20636;-52
2023/10/03 06:49:24;;;;;;;21.67;10.20;;;15.10;99.90;;;;;;4991420;28;20231;-52
2023/10/03 06:51:56;;;;;;;20.37;9.50;;;15.20;99.90;;;;;;4993470;28;20200;-53
2023/10/03 06:54:23;;;;;;;19.20;10.50;;;15.30;99.90;;;;;;4998012;28;20192;-52
2023/10/03 06:56:50;;;;;;;19.50;9.33;;;15.50;99.90;;;;;;4998957;28;20231;-52
2023/10/03 06:59:17;;;;;;;23.00;10.40;;;15.60;99.90;;;;;;4994909;28;20224;-52
2023/10/03 07:01:44;;;;;;;18.17;8.97;;;15.60;99.90;;;;;;4988225;28;20727;-52
2023/10/03 07:04:12;;;;;;;18.83;9.18;;;15.70;99.90;;;;;;4984964;28;20460;-52
2023/10/03 07:06:39;;;;;;;17.37;9.10;;;15.70;99.90;;;;;;4993667;28;20564;-52
2023/10/03 07:09:10;;;;;;;14.63;8.03;;;15.80;99.90;;;;;;4993710;28;20624;-52
2023/10/03 07:11:37;;;;;;;21.40;10.53;;;15.90;99.90;;;;;;4993880;28;20214;-52
2023/10/03 07:14:04;;;;;;;16.40;8.57;;;16.00;99.90;;;;;;4985808;28;20207;-53
2023/10/03 07:16:37;;;;;;;17.67;8.57;;;16.00;99.90;;;;;;4994909;28;20286;-53
2023/10/03 07:19:05;;;;;;;18.33;8.50;;;16.10;99.90;;;;;;4993957;28;20231;-54
2023/10/03 07:21:35;;;;;;;18.70;10.13;;;16.30;99.90;;;;;;4992964;28;20200;-54
2023/10/03 07:24:02;;;;;;;17.73;8.63;;;16.30;99.90;;;;;;4991737;28;20228;-53
2023/10/03 07:26:28;;;;;;;22.07;9.93;;;16.50;99.90;;;;;;4993240;28;20200;-54
2023/10/03 07:28:58;;;;;;;18.27;10.03;;;16.50;99.90;;;;;;4993716;28;20204;-53
2023/10/03 07:31:25;;;;;;;18.50;8.87;;;16.60;99.90;;;;;;4994267;28;20312;-54
2023/10/03 07:33:54;;;;;;;19.90;9.23;;;16.70;99.90;;;;;;4995383;28;20204;-54
2023/10/03 07:36:21;;;;;;;16.17;9.27;;;16.80;99.90;;;;;;4999542;28;20228;-53
2023/10/03 07:38:50;;;;;;;18.50;10.00;;;17.10;99.90;;;;;;4994806;28;20208;-54
2023/10/03 07:41:18;;;;;;;16.23;7.73;;;17.20;99.90;;;;;;4993226;28;20331;-54
2023/10/03 07:43:47;;;;;;;18.23;9.23;;;17.40;99.90;;;;;;4994749;28;20219;-54
2023/10/03 07:46:19;;;;;;;20.17;9.33;;;17.50;99.90;;;;;;4994538;28;20211;-54
2023/10/03 07:48:46;;;;;;;18.40;9.07;;;17.60;99.90;;;;;;4994760;28;20212;-54
2023/10/03 07:51:16;;;;;;;18.57;8.77;;;17.60;99.90;;;;;;4994416;28;20215;-54
2023/10/03 07:53:43;;;;;;;19.47;8.57;;;17.70;99.90;;;;;;4994093;28;20257;-54
2023/10/03 07:56:24;;;;;;;17.30;8.20;;;17.80;99.90;;;;;;4994313;28;20196;-54
2023/10/03 07:58:53;;;;;;;20.40;8.67;;;17.80;99.90;;;;;;4994622;28;20258;-54
2023/10/03 08:01:20;;;;;;;20.43;8.30;;;17.80;99.90;;;;;;4993956;28;20204;-54
2023/10/03 08:03:47;;;;;;;20.60;8.30;;;17.90;99.90;;;;;;4994283;28;20266;-54
2023/10/03 08:06:15;;;;;;;21.77;9.20;;;18.00;99.90;;;;;;4994790;28;20211;-54
2023/10/03 08:08:42;;;;;;;16.30;8.23;;;18.10;99.90;;;;;;4994223;28;20703;-54
2023/10/03 08:11:13;;;;;;;17.90;8.33;;;18.10;99.90;;;;;;4993097;28;20787;-54
2023/10/03 08:13:41;;;;;;;19.90;8.67;;;18.20;99.90;;;;;;4994208;28;20593;-54
2023/10/03 08:16:08;;;;;;;17.07;7.87;;;18.20;99.90;;;;;;4994187;28;20235;-53
2023/10/03 08:18:36;;;;;;;18.17;8.80;;;18.30;99.90;;;;;;4994235;28;20214;-54
2023/10/03 08:21:04;;;;;;;14.87;8.00;;;18.40;99.90;;;;;;4993348;28;20235;-53
2023/10/03 08:23:33;;;;;;;15.73;7.27;;;18.50;99.90;;;;;;4994215;28;20314;-54
2023/10/03 08:26:02;;;;;;;16.93;8.40;;;18.60;99.90;;;;;;5000233;28;20282;-54
2023/10/03 08:28:29;;;;;;;14.70;7.50;;;18.70;99.90;;;;;;5001906;28;20204;-54
2023/10/03 08:31:05;;;;;;;15.40;7.40;;;18.80;99.90;;;;;;4993589;28;20274;-54
2023/10/03 08:33:36;;;;;;;15.00;7.10;;;18.90;99.90;;;;;;4974308;28;20673;-54
2023/10/03 08:36:14;;;;;;;14.57;7.80;;;19.00;99.90;;;;;;4974685;28;20696;-54
2023/10/03 08:38:43;;;;;;;14.70;7.50;;;19.20;99.90;;;;;;4974580;28;20212;-54
2023/10/03 08:41:15;;;;;;;17.17;7.13;;;19.70;99.90;;;;;;4987613;28;20254;-54
2023/10/03 08:43:43;;;;;;;14.43;7.43;;;20.10;99.90;;;;;;4993309;28;20258;-54
2023/10/03 08:46:13;;;;;;;16.13;6.63;;;20.90;99.90;;;;;;4993679;28;20258;-54
2023/10/03 08:48:43;;;;;;;10.77;6.17;;;22.20;99.90;;;;;;4993417;28;20200;-54
2023/10/03 08:51:13;;;;;;;14.27;6.37;;;23.40;99.90;;;;;;4992516;28;20223;-54
2023/10/03 08:53:41;;;;;;;11.77;6.20;;;24.20;99.90;;;;;;4993579;28;20200;-54
2023/10/03 08:56:08;;;;;;;14.70;5.87;;;24.80;99.90;;;;;;4993126;28;20620;-54
2023/10/03 08:58:38;;;;;;;14.27;7.77;;;25.40;99.90;;;;;;4993074;28;20266;-54
2023/10/03 09:01:07;;;;;;;12.17;6.20;;;25.70;99.90;;;;;;4997558;28;20219;-54
2023/10/03 09:03:46;;;;;;;15.33;7.20;;;26.20;99.90;;;;;;4986316;28;20306;-54
2023/10/03 09:06:19;;;;;;;15.77;7.67;;;26.00;99.90;;;;;;4993062;28;20239;-54
2023/10/03 09:08:47;;;;;;;13.47;7.33;;;26.30;99.90;;;;;;4992857;28;20208;-54
2023/10/03 09:11:14;;;;;;;14.80;7.60;;;26.40;99.90;;;;;;4990574;28;20728;-54
2023/10/03 09:13:45;;;;;;;15.83;7.83;;;26.30;99.90;;;;;;4992177;28;20239;-54
2023/10/03 09:16:14;;;;;;;12.50;7.13;;;26.50;99.90;;;;;;4991929;28;20268;-54
2023/10/03 09:18:43;;;;;;;11.30;6.72;;;26.70;99.90;;;;;;4992038;28;20208;-54
2023/10/03 09:21:15;;;;;;;14.87;7.23;;;26.60;99.90;;;;;;5011175;23;20270;-59
2023/10/03 09:24:12;;;;;;;10.87;5.97;;;26.80;99.90;;;;;;4986071;28;20216;-59
2023/10/03 09:26:46;;;;;;;13.07;6.47;;;26.90;99.90;;;;;;4991953;28;20212;-59
2023/10/03 09:29:18;;;;;;;12.37;6.67;;;27.10;99.90;;;;;;4992448;28;20231;-59
2023/10/03 09:31:47;;;;;;;10.55;6.75;;;26.70;99.90;;;;;;5003439;28;20238;-59
2023/10/03 09:34:17;;;;;;;12.50;7.13;;;27.00;99.90;;;;;;5000246;28;20231;-60
2023/10/03 09:36:44;;;;;;;12.13;6.40;;;27.40;99.90;;;;;;4999834;28;20200;-60
2023/10/03 09:39:20;;;;;;;14.50;7.70;;;27.50;99.90;;;;;;5004954;28;20497;-59
2023/10/03 09:41:54;;;;;;;12.18;6.80;;;27.20;99.90;;;;;;4999874;28;20369;-68
2023/10/03 09:44:29;;;;;;;14.18;9.45;;;27.60;99.90;;;;;;4991897;28;20216;-67
2023/10/03 09:47:04;;;;;;;12.95;7.35;;;28.10;99.90;;;;;;4991393;28;20204;-67
2023/10/03 09:49:36;;;;;;;12.70;8.18;;;28.60;99.90;;;;;;4999535;28;20269;-67
2023/10/03 09:52:22;;;;;;;15.57;7.07;;;28.50;99.90;;;;;;5003462;28;20246;-68
2023/10/03 09:54:53;;;;;;;11.65;6.55;;;28.10;99.90;;;;;;4999406;28;20712;-69
2023/10/03 09:57:21;;;;;;;11.85;5.95;;;28.00;99.90;;;;;;5010831;28;20199;-70
2023/10/03 09:59:49;;;;;;;13.88;6.63;;;27.90;99.90;;;;;;5007199;28;20219;-69
2023/10/03 10:02:18;;;;;;;15.57;7.90;;;27.60;99.90;;;;;;4999962;28;20195;-69
2023/10/03 10:04:50;;;;;;;10.45;6.57;;;27.40;99.90;;;;;;5002951;28;20227;-71
2023/10/03 10:07:29;;;;;;;13.23;6.32;;;27.60;99.90;;;;;;5006483;28;20204;-66
2023/10/03 10:10:07;;;;;;;14.63;7.78;;;27.10;99.90;;;;;;5007221;28;20226;-68
2023/10/03 10:12:37;;;;;;;12.70;6.97;;;27.20;99.90;;;;;;5001412;28;20203;-68
2023/10/03 10:15:17;;;;;;;13.57;5.90;;;27.70;99.90;;;;;;5000804;28;20200;-68
2023/10/03 10:17:46;;;;;;;10.00;5.97;;;28.50;99.90;;;;;;4996266;28;20204;-68
2023/10/03 10:20:17;;;;;;;9.75;6.80;;;28.80;99.90;;;;;;4991033;28;20732;-68
2023/10/03 10:23:17;;;;;;;10.05;6.28;;;29.00;99.90;;;;;;4993257;28;20206;-68
2023/10/03 10:25:51;;;;;;;12.90;6.88;;;29.20;99.90;;;;;;5001260;28;20223;-68
2023/10/03 10:28:31;;;;;;;9.50;5.85;;;29.00;99.90;;;;;;5005404;28;20943;-68
2023/10/03 10:31:24;;;;;;;14.65;7.13;;;29.10;99.60;;;;;;5013341;28;20280;-67
2023/10/03 10:34:06;;;;;;;10.93;6.82;;;28.90;99.90;;;;;;5001728;28;20199;-59
2023/10/03 10:36:56;;;;;;;12.40;6.45;;;28.50;99.90;;;;;;5006376;28;20680;-59
2023/10/03 10:39:23;;;;;;;10.85;6.22;;;28.20;99.90;;;;;;5010769;28;20207;-59
2023/10/03 10:42:09;;;;;;;14.40;7.70;;;28.10;99.90;;;;;;5005091;28;20199;-59
2023/10/03 10:44:39;;;;;;;12.70;6.53;;;28.00;99.90;;;;;;5005440;28;20258;-59
2023/10/03 10:47:07;;;;;;;11.02;6.30;;;27.90;99.60;;;;;;5013286;28;20207;-59
2023/10/03 10:49:56;;;;;;;12.07;6.88;;;28.00;99.90;;;;;;5013020;28;20235;-68
2023/10/03 10:52:24;;;;;;;9.20;5.82;;;28.00;99.90;;;;;;5012673;28;20798;-70
2023/10/03 10:54:51;;;;;;;8.57;5.30;;;28.00;99.90;;;;;;5008361;28;20661;-70
2023/10/03 10:57:18;;;;;;;9.45;6.15;;;27.80;99.90;;;;;;5002751;28;20255;-68
2023/10/03 10:59:46;;;;;;;8.75;6.38;;;27.80;99.90;;;;;;4999058;28;20603;-69
2023/10/03 11:02:20;;;;;;;9.43;5.93;;;27.60;99.90;;;;;;5010806;28;20233;-66
2023/10/03 11:04:54;;;;;;;9.57;6.20;;;27.40;99.90;;;;;;5012394;28;20222;-67
2023/10/03 11:07:22;;;;;;;8.82;5.53;;;27.20;99.90;;;;;;5012665;28;20288;-66
2023/10/03 11:09:52;;;;;;;7.35;5.68;;;27.20;99.90;;;;;;5006127;28;20262;-66
2023/10/03 11:12:26;;;;;;;9.95;5.68;;;27.20;99.90;;;;;;5006245;28;20577;-67
2023/10/03 11:14:55;;;;;;;12.52;6.20;;;27.30;99.90;;;;;;4997887;28;20781;-67
2023/10/03 11:17:22;;;;;;;8.45;5.65;;;27.10;99.90;;;;;;5011403;28;20596;-69
2023/10/03 11:19:50;;;;;;;10.55;5.72;;;26.80;99.90;;;;;;5011397;28;20234;-69
2023/10/03 11:22:17;;;;;;;7.88;5.75;;;26.70;99.90;;;;;;5009833;28;20226;-69
2023/10/03 11:24:45;;;;;;;8.55;5.05;;;26.40;99.90;;;;;;5012454;28;20259;-69
2023/10/03 11:27:24;;;;;;;8.07;5.53;;;26.30;99.90;;;;;;5012067;28;20262;-69
2023/10/03 11:29:51;;;;;;;8.23;4.75;;;26.20;99.90;;;;;;5003931;28;20602;-70
2023/10/03 11:32:28;;;;;;;9.27;5.55;;;26.30;99.90;;;;;;5000775;28;20554;-70
2023/10/03 11:34:56;;;;;;;10.18;6.57;;;26.50;99.90;;;;;;5000559;28;20210;-65
2023/10/03 11:37:39;;;;;;;8.57;5.47;;;26.80;99.90;;;;;;5011720;28;20233;-69
2023/10/03 11:40:15;;;;;;;9.10;5.75;;;27.10;99.90;;;;;;5011952;28;20223;-68
2023/10/03 11:43:03;;;;;;;8.23;5.32;;;27.20;99.90;;;;;;5011481;28;20689;-70
2023/10/03 11:45:33;;;;;;;10.68;5.85;;;27.30;99.90;;;;;;4997912;28;20226;-66
2023/10/03 11:48:00;;;;;;;15.88;8.05;;;27.20;99.90;;;;;;5002054;28;20235;-65
2023/10/03 11:50:27;;;;;;;8.75;5.30;;;27.00;99.90;;;;;;4993480;28;20309;-67
2023/10/03 11:52:56;;;;;;;10.32;6.38;;;26.80;99.90;;;;;;5007444;28;20206;-66
2023/10/03 11:55:23;;;;;;;9.75;5.85;;;26.70;99.90;;;;;;5011418;28;20727;-67
2023/10/03 11:57:50;;;;;;;8.63;5.15;;;26.70;99.90;;;;;;5011716;28;20250;-68
2023/10/03 12:00:24;;;;;;;9.75;4.97;;;26.70;99.90;;;;;;5011415;28;20238;-65
2023/10/03 12:02:52;;;;;;;8.73;4.63;;;27.00;99.90;;;;;;5009753;28;20294;-67
2023/10/03 12:05:19;;;;;;;9.05;4.90;;;27.20;99.90;;;;;;4995890;28;20247;-65
2023/10/03 12:07:47;;;;;;;7.22;5.05;;;27.20;99.90;;;;;;5011425;28;20207;-66
2023/10/03 12:10:15;;;;;;;6.88;4.53;;;27.20;99.90;;;;;;5011400;28;20319;-65
2023/10/03 12:12:42;;;;;;;6.57;4.15;;;27.10;99.90;;;;;;5011327;28;20211;-64
2023/10/03 12:15:13;;;;;;;8.93;4.63;;;27.00;99.90;;;;;;5011265;28;20191;-66
2023/10/03 12:17:43;;;;;;;12.88;5.18;;;27.00;99.90;;;;;;5011321;28;20698;-64
2023/10/03 12:20:13;;;;;;;5.90;5.30;;;26.90;99.90;;;;;;5006919;28;20586;-64
2023/10/03 12:22:41;;;;;;;12.77;4.78;;;26.90;99.90;;;;;;4997334;28;20226;-65
2023/10/03 12:25:10;;;;;;;6.72;5.28;;;26.90;99.90;;;;;;5010607;28;20219;-65
2023/10/03 12:27:38;;;;;;;6.45;4.63;;;26.80;99.90;;;;;;5011346;28;20199;-67
2023/10/03 12:30:09;;;;;;;5.63;3.72;;;26.80;99.80;;;;;;5010593;28;20223;-67
2023/10/03 12:32:38;;;;;;;6.18;4.85;;;26.80;99.90;;;;;;5010839;28;20214;-65
2023/10/03 12:35:08;;;;;;;3.85;3.45;;;26.80;99.90;;;;;;5002794;28;20200;-68
2023/10/03 12:37:35;;;;;;;7.45;4.63;;;26.80;99.90;;;;;;4998538;28;20287;-67
2023/10/03 12:40:04;;;;;;;7.05;4.78;;;26.80;99.90;;;;;;4995477;28;20231;-66
2023/10/03 12:42:31;;;;;;;6.45;4.38;;;26.80;99.90;;;;;;5003612;28;20203;-67
2023/10/03 12:45:00;;;;;;;8.88;4.32;;;26.80;99.90;;;;;;5010686;28;20218;-66
2023/10/03 12:47:28;;;;;;;4.18;3.78;;;26.80;99.80;;;;;;4996169;28;20694;-57
2023/10/03 12:49:54;;;;;;;4.53;4.13;;;26.80;99.90;;;;;;4998102;28;20226;-57
2023/10/03 12:52:23;;;;;;;5.38;4.10;;;26.70;99.90;;;;;;5009749;28;20211;-57